»·PEaware :: N962W KSNA-KCRQ

N962W :: KSNA-KCRQ

FLIGHT INFORMATION

Flight Status: Arrived
Operator: Privately registered:
United States
More flights under this callsign
Pilot: Paul P. (20696)
Aircraft: SOCATA TBM-900
(TBM9)
More flights by this aircraft type
Origin: KSNA John Wayne-Orange Co
United States
Destination: KCRQ McClellan-Palomar
United States
More flights between these airports :: More routes between these airports
Route: +V25 PACIF V208 OCN
File this flight plan on PilotEdge
Remarks: PBN / D2 DOF / 181206 REG / GPTBM PER / B RMK / TCAS SIMBRIEF
Altitude:
(Current/Filed)
7,000ft
Speed:
(Current/Filed)
261kts
Departed: 06-Dec-18 12:37 PM
Arrived: 06-Dec-18 01:09 PM
Distance/Time
Traveled:
44nm/0:32
Distance/Time
To Go:
Arrived

Flight Plot

Page will automatically refresh every two minutes.


Map Options




Map Legend


Flown Route
Filed Route
Departure Airport
Arrival Airport
Navaid (VOR, NDB)
Fix

Horizontal Profiles

Position Reports

Time Latitude Longitude Heading Altitude Ground
Speed
06-Dec-18 12:07 33.667179 -117.872124 225 59ft 0kts
06-Dec-18 12:08 33.667179 -117.872124 225 59ft 0kts
06-Dec-18 12:09 33.667179 -117.872124 225 59ft 0kts
06-Dec-18 12:10 33.667179 -117.872124 225 59ft 0kts
06-Dec-18 12:11 33.667179 -117.872124 225 59ft 0kts
06-Dec-18 12:12 33.667179 -117.872124 225 59ft 0kts
06-Dec-18 12:13 33.667179 -117.872124 225 59ft 0kts
06-Dec-18 12:14 33.667179 -117.872124 225 59ft 0kts
06-Dec-18 12:15 33.667179 -117.872124 225 59ft 0kts
06-Dec-18 12:16 33.667179 -117.872124 225 59ft 0kts
06-Dec-18 12:17 33.667179 -117.872124 225 59ft 0kts
06-Dec-18 12:18 33.667179 -117.872124 225 59ft 0kts
06-Dec-18 12:19 33.667179 -117.872124 225 59ft 0kts
06-Dec-18 12:20 33.667179 -117.872124 225 59ft 0kts
06-Dec-18 12:21 33.667179 -117.872124 225 59ft 0kts
06-Dec-18 12:22 33.667179 -117.872124 225 59ft 0kts
06-Dec-18 12:23 33.667179 -117.872124 225 59ft 0kts
06-Dec-18 12:24 33.667179 -117.872124 225 59ft 0kts
06-Dec-18 12:25 33.667179 -117.872124 225 59ft 0kts
06-Dec-18 12:26 33.667179 -117.872124 225 59ft 0kts
06-Dec-18 12:27 33.667179 -117.872124 225 59ft 0kts
06-Dec-18 12:28 33.667179 -117.872124 225 59ft 0kts
06-Dec-18 12:29 33.667179 -117.872124 225 59ft 0kts
06-Dec-18 12:30 33.667146 -117.872217 282 59ft 3kts
06-Dec-18 12:31 33.669507 -117.870525 38 59ft 18kts
06-Dec-18 12:32 33.673173 -117.867126 44 59ft 13kts
06-Dec-18 12:33 33.676631 -117.865531 25 48ft 16kts
06-Dec-18 12:34 33.679618 -117.863577 28 59ft 1kts
06-Dec-18 12:35 33.680272 -117.864344 302 59ft 11kts
06-Dec-18 12:36 33.671518 -117.871461 204 237ft 121kts
06-Dec-18 12:37 33.634201 -117.877059 186 2647ft 133kts
06-Dec-18 12:38 33.599136 -117.876719 186 5272ft 118kts
06-Dec-18 12:39 33.564355 -117.877208 186 7051ft 163kts
06-Dec-18 12:40 33.506398 -117.881832 186 7010ft 225kts
06-Dec-18 12:41 33.440869 -117.887407 186 7001ft 232kts
06-Dec-18 12:42 33.383683 -117.853905 140 6998ft 248kts
06-Dec-18 12:43 33.332165 -117.797350 140 6969ft 240kts
06-Dec-18 12:44 33.284973 -117.740702 110 6944ft 246kts
06-Dec-18 12:45 33.272366 -117.658253 105 6971ft 249kts
06-Dec-18 12:46 33.259782 -117.574609 103 6989ft 252kts
06-Dec-18 12:47 33.249491 -117.490160 102 6989ft 253kts
06-Dec-18 12:48 33.239052 -117.405532 103 6981ft 253kts
06-Dec-18 12:49 33.222247 -117.329219 81 6720ft 268kts
06-Dec-18 12:50 33.239026 -117.241054 81 5737ft 268kts
06-Dec-18 12:51 33.255132 -117.158496 81 5002ft 238kts
06-Dec-18 12:52 33.270656 -117.080048 81 5008ft 238kts
06-Dec-18 12:53 33.233215 -117.032901 161 4239ft 211kts
06-Dec-18 12:54 33.179795 -117.028750 234 3509ft 203kts
06-Dec-18 12:55 33.175270 -117.091249 310 3485ft 209kts
06-Dec-18 12:56 33.178671 -117.153601 313 3403ft 210kts
06-Dec-18 12:57 33.239365 -117.179406 341 3486ft 245kts
06-Dec-18 12:58 33.287217 -117.152123 96 3517ft 225kts
06-Dec-18 12:59 33.283853 -117.076304 96 3508ft 224kts
06-Dec-18 13:00 33.269562 -117.009113 156 3492ft 216kts
06-Dec-18 13:01 33.209855 -117.001892 201 3487ft 207kts
06-Dec-18 13:02 33.171427 -117.053252 226 3524ft 202kts
06-Dec-18 13:03 33.155010 -117.116898 254 3018ft 187kts
06-Dec-18 13:04 33.146167 -117.170007 254 2184ft 138kts
06-Dec-18 13:05 33.139403 -117.211184 254 1444ft 113kts
06-Dec-18 13:06 33.134333 -117.242262 253 901ft 90kts
06-Dec-18 13:07 33.129868 -117.270388 253 398ft 84kts
06-Dec-18 13:08 33.127936 -117.280278 96 303ft 0kts

Navigation Log

Ident Type
Flight plan parsing failed, navigation log unavailable